• Join FlightAware (Why Join?)
  • Login
  • US Flag 
05:17AM EST


 

Airport Tracker/Info


-or-


 

Live Flight TrackerFlight Track Log ✈ EJA929 ✈ 10-Aug-2013 ✈ KSMF - KSBA

Flight Track Log - Related Links

Times and Time Zones

All times are in EDT time to prevent confusion due to time zone crossing. See the EJA929 flight status page for this flight to view local times or setup timezone preferences in your user account.

Time Position Orientation Groundspeed Altitude Reporting Facility
EDT Latitude Longitude Course Direction KTS MPH feet Rate Location/Type
08:14PM 38.6667 -121.5333 113° Southeast 229 264 3,800  Level Northern Cal TRACON
08:16PM 38.5756 -121.3344 120° Southeast 293 337 10,900 2,460 Climbing Oakland Center
08:17PM 38.5231 -121.2331 123° Southeast 334 384 12,700 1,920 Climbing Oakland Center
08:18PM 38.4606 -121.1161 124° Southeast 367 422 14,900 1,980 Climbing Oakland Center
08:19PM 38.3051 -120.9819 113° Southeast  Level FlightAware Approximate
08:19PM 38.4008 -121.0042 124° Southeast 379 436 16,800  Level Oakland Center
08:20PM 38.3392 -120.8889 124° Southeast 388 447 18,700 1,860 Climbing Oakland Center
08:21PM 38.2764 -120.7703 124° Southeast 401 461 20,700 2,040 Climbing Oakland Center
08:22PM 38.2050 -120.6572 129° Southeast 408 470 22,900 1,920 Climbing Oakland Center
08:23PM 38.1122 -120.5675 143° Southeast 418 481 24,700 1,740 Climbing Oakland Center
08:24PM 38.0178 -120.4742 142° Southeast 427 491 26,500 1,800 Climbing Oakland Center
08:25PM 37.8983 -120.3592 143° Southeast 444 511 28,400 1,200 Climbing Oakland Center
08:26PM 37.7950 -120.2578 142° Southeast 463 533 29,000 240 Climbing Oakland Center
08:27PM 37.6900 -120.1572 143° Southeast 472 543 29,000  Level Oakland Center
08:28PM 37.5875 -120.0606 143° Southeast 464 534 29,000  Level Oakland Center
08:29PM 37.4875 -119.9639 142° Southeast 457 526 29,000  Level Oakland Center
08:30PM 37.3875 -119.8689 143° Southeast 452 520 29,000  Level Oakland Center
08:31PM 37.2897 -119.7733 142° Southeast 445 512 29,000  Level Oakland Center
08:32PM 37.1900 -119.6783 143° Southeast 448 516 29,000  Level Oakland Center
08:33PM 37.0814 -119.6097 153° Southeast 445 512 29,000 -60 Level Oakland Center
08:34PM 36.9639 -119.6236 185° South 425 489 28,900  Descending Oakland Center
08:35PM 36.8475 -119.6483 190° South 426 490 29,000  Climbing Oakland Center
08:36PM 36.7292 -119.6694 188° South 429 494 29,000  Level Oakland Center
08:37PM 36.6119 -119.6947 190° South 428 493 29,000  Level Oakland Center
08:38PM 36.4711 -119.7231 189° South 427 491 29,000  Level Oakland Center
08:39PM 36.3531 -119.7444 188° South 427 491 29,000  Level Oakland Center
08:40PM 36.2353 -119.7692 190° South 428 493 29,000  Level Oakland Center
08:42PM 36.1169 -119.7917 189° South 430 495 29,000  Level Oakland Center
08:43PM 35.9975 -119.8150 189° South 435 501 29,000  Level Oakland Center
08:44PM 35.8739 -119.8381 189° South 445 512 29,000  Level Oakland Center
08:45PM 35.7494 -119.8625 189° South 451 519 29,000  Level Oakland Center
08:46PM 35.6233 -119.8858 189° South 455 524 29,000 -240 Level Oakland Center
08:46PM 35.5478 -119.9003 189° South 453 521 28,700 -1,020 Descending Los Angeles Center
08:47PM 35.4256 -119.9239 189° South 444 511 27,400 -1,560 Descending Los Angeles Center
08:48PM 35.3058 -119.9458 189° South 432 497 25,600 -2,280 Descending Los Angeles Center
08:49PM 35.1886 -119.9681 189° South 426 490 22,800 -2,880 Descending Los Angeles Center
08:50PM 35.0769 -119.9903 189° South 411 473 19,700 -3,120 Descending Los Angeles Center
08:51PM 34.9697 -120.0106 189° South 393 452 16,500 -3,180 Descending Los Angeles Center
08:52PM 34.8494 -120.0328 189° South 366 421 13,300 -2,460 Descending Los Angeles Center
08:53PM 34.7611 -120.0486 188° South 327 376 11,600 -1,620 Descending Los Angeles Center
08:54PM 34.6797 -120.0617 188° South 304 350 10,100 -1,680 Descending Los Angeles Center
08:55PM 34.5958 -120.0522 175° South 292 336 8,200 -2,040 Descending Los Angeles Center
08:56PM 34.5172 -120.0486 178° South 295 339 6,100 -1,080 Descending Los Angeles Center
08:57PM 34.4511 -120.0231 162° South 251 289 6,100 -840 Level Los Angeles Center
08:58PM 34.4044 -119.9675 136° Southeast 231 266 4,500 -1,620 Descending Los Angeles Center
08:59PM 34.3828 -119.8989 111° Southeast 232 267 2,900 -1,260 Descending Los Angeles Center
09:00PM 34.3847 -119.8306 88° East 186 214 2,000 -900 Descending Los Angeles Center
09:01PM 34.4097 -119.7964 48° Northeast 153 176 1,100 -720 Descending Los Angeles Center
09:03PM 34.4261 -119.8372 296° West 161 185 400 -540 Descending Los Angeles Center
09:05PM 34.4167 -119.8333 292° West  Level FlightAware Approximate